sensor_id;sensor_type;location;lat;lon;timestamp;temperature;humidity
41447;DHT22;27185;52.040;4.490;2023-02-15T00:00:39;4.90;99.90
41447;DHT22;27185;52.040;4.490;2023-02-15T00:03:25;4.80;99.90
41447;DHT22;27185;52.040;4.490;2023-02-15T00:06:10;4.80;99.90
41447;DHT22;27185;52.040;4.490;2023-02-15T00:08:56;4.80;99.90
41447;DHT22;27185;52.040;4.490;2023-02-15T00:11:42;4.80;99.90
41447;DHT22;27185;52.040;4.490;2023-02-15T00:14:29;4.70;99.90
41447;DHT22;27185;52.040;4.490;2023-02-15T00:17:14;4.70;99.90
41447;DHT22;27185;52.040;4.490;2023-02-15T00:20:00;4.60;99.90
41447;DHT22;27185;52.040;4.490;2023-02-15T00:22:46;4.60;99.90
41447;DHT22;27185;52.040;4.490;2023-02-15T00:25:31;4.60;99.90
41447;DHT22;27185;52.040;4.490;2023-02-15T00:28:17;4.60;99.90
41447;DHT22;27185;52.040;4.490;2023-02-15T00:31:11;4.50;99.90
41447;DHT22;27185;52.040;4.490;2023-02-15T00:34:07;4.50;99.90
41447;DHT22;27185;52.040;4.490;2023-02-15T00:36:53;4.50;99.90
41447;DHT22;27185;52.040;4.490;2023-02-15T00:39:39;4.50;99.90
41447;DHT22;27185;52.040;4.490;2023-02-15T00:42:24;4.50;99.90
41447;DHT22;27185;52.040;4.490;2023-02-15T00:45:10;4.50;99.90
41447;DHT22;27185;52.040;4.490;2023-02-15T00:47:56;4.40;99.90
41447;DHT22;27185;52.040;4.490;2023-02-15T00:50:41;4.40;99.90
41447;DHT22;27185;52.040;4.490;2023-02-15T00:53:30;4.40;99.90
41447;DHT22;27185;52.040;4.490;2023-02-15T00:56:16;4.40;99.90
41447;DHT22;27185;52.040;4.490;2023-02-15T00:59:01;4.40;99.90
41447;DHT22;27185;52.040;4.490;2023-02-15T01:01:47;4.40;99.90
41447;DHT22;27185;52.040;4.490;2023-02-15T01:04:33;4.40;99.90
41447;DHT22;27185;52.040;4.490;2023-02-15T01:07:18;4.40;99.90
41447;DHT22;27185;52.040;4.490;2023-02-15T01:10:06;4.40;99.90
41447;DHT22;27185;52.040;4.490;2023-02-15T01:12:52;4.30;99.90
41447;DHT22;27185;52.040;4.490;2023-02-15T01:15:38;4.30;99.90
41447;DHT22;27185;52.040;4.490;2023-02-15T01:18:24;4.30;99.90
41447;DHT22;27185;52.040;4.490;2023-02-15T01:21:14;4.30;99.90
41447;DHT22;27185;52.040;4.490;2023-02-15T01:24:01;4.20;99.90
41447;DHT22;27185;52.040;4.490;2023-02-15T01:26:47;4.20;99.90
41447;DHT22;27185;52.040;4.490;2023-02-15T01:29:32;4.20;99.90
41447;DHT22;27185;52.040;4.490;2023-02-15T01:32:18;4.10;99.90
41447;DHT22;27185;52.040;4.490;2023-02-15T01:35:04;4.10;99.90
41447;DHT22;27185;52.040;4.490;2023-02-15T01:37:49;4.10;99.90
41447;DHT22;27185;52.040;4.490;2023-02-15T01:40:35;4.10;99.90
41447;DHT22;27185;52.040;4.490;2023-02-15T01:43:21;4.10;99.90
41447;DHT22;27185;52.040;4.490;2023-02-15T01:46:07;4.10;99.90
41447;DHT22;27185;52.040;4.490;2023-02-15T01:49:08;4.10;99.90
41447;DHT22;27185;52.040;4.490;2023-02-15T01:51:56;4.00;99.90
41447;DHT22;27185;52.040;4.490;2023-02-15T01:54:42;4.00;99.90
41447;DHT22;27185;52.040;4.490;2023-02-15T01:57:30;4.00;99.90
41447;DHT22;27185;52.040;4.490;2023-02-15T02:00:16;4.00;99.90
41447;DHT22;27185;52.040;4.490;2023-02-15T02:03:03;3.90;99.90
41447;DHT22;27185;52.040;4.490;2023-02-15T02:05:49;3.90;99.90
41447;DHT22;27185;52.040;4.490;2023-02-15T02:08:35;3.90;99.90
41447;DHT22;27185;52.040;4.490;2023-02-15T02:11:21;3.80;99.90
41447;DHT22;27185;52.040;4.490;2023-02-15T02:14:07;3.90;99.90
41447;DHT22;27185;52.040;4.490;2023-02-15T02:17:09;3.80;99.90
41447;DHT22;27185;52.040;4.490;2023-02-15T02:22:53;3.80;99.90
41447;DHT22;27185;52.040;4.490;2023-02-15T02:36:16;3.80;99.90
41447;DHT22;27185;52.040;4.490;2023-02-15T02:42:29;3.70;99.90
41447;DHT22;27185;52.040;4.490;2023-02-15T02:45:47;3.70;99.90
41447;DHT22;27185;52.040;4.490;2023-02-15T02:48:32;3.60;99.90
41447;DHT22;27185;52.040;4.490;2023-02-15T02:51:18;3.60;99.90
41447;DHT22;27185;52.040;4.490;2023-02-15T02:54:07;3.60;99.90
41447;DHT22;27185;52.040;4.490;2023-02-15T02:56:54;3.60;99.90
41447;DHT22;27185;52.040;4.490;2023-02-15T02:59:44;3.60;99.90
41447;DHT22;27185;52.040;4.490;2023-02-15T03:02:38;3.50;99.90
41447;DHT22;27185;52.040;4.490;2023-02-15T03:05:27;3.50;99.90
41447;DHT22;27185;52.040;4.490;2023-02-15T03:08:16;3.50;99.90
41447;DHT22;27185;52.040;4.490;2023-02-15T03:11:07;3.50;99.90
41447;DHT22;27185;52.040;4.490;2023-02-15T03:13:53;3.40;99.90
41447;DHT22;27185;52.040;4.490;2023-02-15T03:16:40;3.40;99.90
41447;DHT22;27185;52.040;4.490;2023-02-15T03:19:31;3.40;99.90
41447;DHT22;27185;52.040;4.490;2023-02-15T03:22:21;3.40;99.90
41447;DHT22;27185;52.040;4.490;2023-02-15T03:25:13;3.30;99.90
41447;DHT22;27185;52.040;4.490;2023-02-15T03:28:13;3.30;99.90
41447;DHT22;27185;52.040;4.490;2023-02-15T03:31:03;3.20;99.90
41447;DHT22;27185;52.040;4.490;2023-02-15T03:33:59;3.30;99.90
41447;DHT22;27185;52.040;4.490;2023-02-15T03:39:56;3.30;99.90
41447;DHT22;27185;52.040;4.490;2023-02-15T03:43:13;3.30;99.90
41447;DHT22;27185;52.040;4.490;2023-02-15T03:49:22;3.30;99.90
41447;DHT22;27185;52.040;4.490;2023-02-15T03:52:08;3.30;99.90
41447;DHT22;27185;52.040;4.490;2023-02-15T03:54:55;3.20;99.90
41447;DHT22;27185;52.040;4.490;2023-02-15T03:57:41;3.20;99.90
41447;DHT22;27185;52.040;4.490;2023-02-15T04:00:55;3.20;99.90
41447;DHT22;27185;52.040;4.490;2023-02-15T04:04:12;3.10;99.90
41447;DHT22;27185;52.040;4.490;2023-02-15T04:07:02;3.10;99.90
41447;DHT22;27185;52.040;4.490;2023-02-15T04:09:48;3.10;99.90
41447;DHT22;27185;52.040;4.490;2023-02-15T04:12:52;3.10;99.90
41447;DHT22;27185;52.040;4.490;2023-02-15T04:15:38;3.10;99.90
41447;DHT22;27185;52.040;4.490;2023-02-15T04:18:43;3.20;99.90
41447;DHT22;27185;52.040;4.490;2023-02-15T04:21:47;3.10;99.90
41447;DHT22;27185;52.040;4.490;2023-02-15T04:24:51;3.10;99.90
41447;DHT22;27185;52.040;4.490;2023-02-15T04:27:55;3.10;99.90
41447;DHT22;27185;52.040;4.490;2023-02-15T04:30:41;3.10;99.90
41447;DHT22;27185;52.040;4.490;2023-02-15T04:33:26;3.10;99.90
41447;DHT22;27185;52.040;4.490;2023-02-15T04:36:12;3.10;99.90
41447;DHT22;27185;52.040;4.490;2023-02-15T04:38:58;3.10;99.90
41447;DHT22;27185;52.040;4.490;2023-02-15T04:41:44;3.00;99.90
41447;DHT22;27185;52.040;4.490;2023-02-15T04:44:29;3.00;99.90
41447;DHT22;27185;52.040;4.490;2023-02-15T04:47:15;3.00;99.90
41447;DHT22;27185;52.040;4.490;2023-02-15T04:50:01;3.00;99.90
41447;DHT22;27185;52.040;4.490;2023-02-15T04:52:46;3.00;99.90
41447;DHT22;27185;52.040;4.490;2023-02-15T04:55:32;3.00;99.90
41447;DHT22;27185;52.040;4.490;2023-02-15T04:58:17;3.10;99.90
41447;DHT22;27185;52.040;4.490;2023-02-15T05:01:03;3.10;99.90
41447;DHT22;27185;52.040;4.490;2023-02-15T05:03:49;3.20;99.90
41447;DHT22;27185;52.040;4.490;2023-02-15T05:06:34;3.20;99.90
41447;DHT22;27185;52.040;4.490;2023-02-15T05:09:20;3.20;99.90
41447;DHT22;27185;52.040;4.490;2023-02-15T05:12:06;3.20;99.90
41447;DHT22;27185;52.040;4.490;2023-02-15T05:14:51;3.20;99.90
41447;DHT22;27185;52.040;4.490;2023-02-15T05:17:37;3.30;99.90
41447;DHT22;27185;52.040;4.490;2023-02-15T05:20:23;3.30;99.90
41447;DHT22;27185;52.040;4.490;2023-02-15T05:23:08;3.30;99.90
41447;DHT22;27185;52.040;4.490;2023-02-15T05:25:54;3.30;99.90
41447;DHT22;27185;52.040;4.490;2023-02-15T05:28:58;3.30;99.90
41447;DHT22;27185;52.040;4.490;2023-02-15T05:31:44;3.30;99.90
41447;DHT22;27185;52.040;4.490;2023-02-15T05:34:32;3.30;99.90
41447;DHT22;27185;52.040;4.490;2023-02-15T05:37:17;3.30;99.90
41447;DHT22;27185;52.040;4.490;2023-02-15T05:40:05;3.30;99.90
41447;DHT22;27185;52.040;4.490;2023-02-15T05:42:51;3.20;99.90
41447;DHT22;27185;52.040;4.490;2023-02-15T05:45:36;3.30;99.90
41447;DHT22;27185;52.040;4.490;2023-02-15T05:48:24;3.30;99.90
41447;DHT22;27185;52.040;4.490;2023-02-15T05:51:12;3.30;99.90
41447;DHT22;27185;52.040;4.490;2023-02-15T05:54:02;3.20;99.90
41447;DHT22;27185;52.040;4.490;2023-02-15T05:56:47;3.20;99.90
41447;DHT22;27185;52.040;4.490;2023-02-15T05:59:33;3.20;99.90
41447;DHT22;27185;52.040;4.490;2023-02-15T06:02:19;3.20;99.90
41447;DHT22;27185;52.040;4.490;2023-02-15T06:05:05;3.20;99.90
41447;DHT22;27185;52.040;4.490;2023-02-15T06:07:51;3.20;99.90
41447;DHT22;27185;52.040;4.490;2023-02-15T06:10:36;3.20;99.90
41447;DHT22;27185;52.040;4.490;2023-02-15T06:13:22;3.20;99.90
41447;DHT22;27185;52.040;4.490;2023-02-15T06:16:07;3.20;99.90
41447;DHT22;27185;52.040;4.490;2023-02-15T06:18:53;3.20;99.90
41447;DHT22;27185;52.040;4.490;2023-02-15T06:21:39;3.20;99.90
41447;DHT22;27185;52.040;4.490;2023-02-15T06:24:24;3.20;99.90
41447;DHT22;27185;52.040;4.490;2023-02-15T06:27:10;3.20;99.90
41447;DHT22;27185;52.040;4.490;2023-02-15T06:29:55;3.20;99.90
41447;DHT22;27185;52.040;4.490;2023-02-15T06:32:41;3.20;99.90
41447;DHT22;27185;52.040;4.490;2023-02-15T06:35:27;3.20;99.90
41447;DHT22;27185;52.040;4.490;2023-02-15T06:38:12;3.20;99.90
41447;DHT22;27185;52.040;4.490;2023-02-15T06:40:58;3.20;99.90
41447;DHT22;27185;52.040;4.490;2023-02-15T06:43:44;3.20;99.90
41447;DHT22;27185;52.040;4.490;2023-02-15T06:46:29;3.20;99.90
41447;DHT22;27185;52.040;4.490;2023-02-15T06:49:15;3.20;99.90
41447;DHT22;27185;52.040;4.490;2023-02-15T06:52:00;3.10;99.90
41447;DHT22;27185;52.040;4.490;2023-02-15T06:54:46;3.10;99.90
41447;DHT22;27185;52.040;4.490;2023-02-15T06:57:32;3.10;99.90
41447;DHT22;27185;52.040;4.490;2023-02-15T07:00:18;3.10;99.90
41447;DHT22;27185;52.040;4.490;2023-02-15T07:03:04;3.10;99.90
41447;DHT22;27185;52.040;4.490;2023-02-15T07:05:54;3.10;99.90
41447;DHT22;27185;52.040;4.490;2023-02-15T07:08:40;3.10;99.90
41447;DHT22;27185;52.040;4.490;2023-02-15T07:11:26;3.10;99.90
41447;DHT22;27185;52.040;4.490;2023-02-15T07:14:30;3.10;99.90
41447;DHT22;27185;52.040;4.490;2023-02-15T07:17:16;3.10;99.90
41447;DHT22;27185;52.040;4.490;2023-02-15T07:20:11;3.10;99.90
41447;DHT22;27185;52.040;4.490;2023-02-15T07:22:57;3.10;99.90
41447;DHT22;27185;52.040;4.490;2023-02-15T07:25:42;3.10;99.90
41447;DHT22;27185;52.040;4.490;2023-02-15T07:28:28;3.20;99.90
41447;DHT22;27185;52.040;4.490;2023-02-15T07:31:14;3.20;99.90
41447;DHT22;27185;52.040;4.490;2023-02-15T07:34:00;3.20;99.90
41447;DHT22;27185;52.040;4.490;2023-02-15T07:36:45;3.30;99.90
41447;DHT22;27185;52.040;4.490;2023-02-15T07:39:31;3.30;99.90
41447;DHT22;27185;52.040;4.490;2023-02-15T07:42:16;3.30;99.90
41447;DHT22;27185;52.040;4.490;2023-02-15T07:45:03;3.40;99.90
41447;DHT22;27185;52.040;4.490;2023-02-15T07:47:49;3.40;99.90
41447;DHT22;27185;52.040;4.490;2023-02-15T07:50:34;3.40;99.90
41447;DHT22;27185;52.040;4.490;2023-02-15T07:53:20;3.50;99.90
41447;DHT22;27185;52.040;4.490;2023-02-15T07:56:08;3.50;99.90
41447;DHT22;27185;52.040;4.490;2023-02-15T07:58:54;3.50;99.90
41447;DHT22;27185;52.040;4.490;2023-02-15T08:01:42;3.60;99.90
41447;DHT22;27185;52.040;4.490;2023-02-15T08:04:28;3.70;99.90
41447;DHT22;27185;52.040;4.490;2023-02-15T08:07:14;3.70;99.90
41447;DHT22;27185;52.040;4.490;2023-02-15T08:09:59;3.70;99.90
41447;DHT22;27185;52.040;4.490;2023-02-15T08:12:45;3.70;99.90
41447;DHT22;27185;52.040;4.490;2023-02-15T08:15:30;3.80;99.90
41447;DHT22;27185;52.040;4.490;2023-02-15T08:18:17;3.80;99.90
41447;DHT22;27185;52.040;4.490;2023-02-15T08:21:02;3.90;99.90
41447;DHT22;27185;52.040;4.490;2023-02-15T08:23:50;4.00;99.90
41447;DHT22;27185;52.040;4.490;2023-02-15T08:26:36;4.00;99.90
41447;DHT22;27185;52.040;4.490;2023-02-15T08:29:26;4.10;99.90
41447;DHT22;27185;52.040;4.490;2023-02-15T08:32:13;4.20;99.90
41447;DHT22;27185;52.040;4.490;2023-02-15T08:34:59;4.20;99.90
41447;DHT22;27185;52.040;4.490;2023-02-15T08:37:44;4.30;99.90
41447;DHT22;27185;52.040;4.490;2023-02-15T08:40:30;4.40;99.90
41447;DHT22;27185;52.040;4.490;2023-02-15T08:43:16;4.50;99.90
41447;DHT22;27185;52.040;4.490;2023-02-15T08:46:02;4.50;99.90
41447;DHT22;27185;52.040;4.490;2023-02-15T08:48:47;4.60;99.90
41447;DHT22;27185;52.040;4.490;2023-02-15T08:51:35;4.70;99.90
41447;DHT22;27185;52.040;4.490;2023-02-15T08:54:21;4.80;99.90
41447;DHT22;27185;52.040;4.490;2023-02-15T08:57:07;4.90;99.90
41447;DHT22;27185;52.040;4.490;2023-02-15T08:59:53;5.00;99.90
41447;DHT22;27185;52.040;4.490;2023-02-15T09:02:40;5.10;99.90
41447;DHT22;27185;52.040;4.490;2023-02-15T09:05:25;5.10;99.90
41447;DHT22;27185;52.040;4.490;2023-02-15T09:08:11;5.20;99.90
41447;DHT22;27185;52.040;4.490;2023-02-15T09:11:12;5.40;99.90
41447;DHT22;27185;52.040;4.490;2023-02-15T09:14:03;5.50;99.90
41447;DHT22;27185;52.040;4.490;2023-02-15T09:16:49;5.60;99.90
41447;DHT22;27185;52.040;4.490;2023-02-15T09:19:36;5.70;99.90
41447;DHT22;27185;52.040;4.490;2023-02-15T09:22:22;5.80;99.90
41447;DHT22;27185;52.040;4.490;2023-02-15T09:25:08;5.80;99.90
41447;DHT22;27185;52.040;4.490;2023-02-15T09:27:53;6.00;99.90
41447;DHT22;27185;52.040;4.490;2023-02-15T09:30:39;6.10;99.90
41447;DHT22;27185;52.040;4.490;2023-02-15T09:33:24;6.20;99.90
41447;DHT22;27185;52.040;4.490;2023-02-15T09:36:26;6.30;99.90
41447;DHT22;27185;52.040;4.490;2023-02-15T09:42:44;6.60;99.90
41447;DHT22;27185;52.040;4.490;2023-02-15T09:45:40;6.70;99.90
41447;DHT22;27185;52.040;4.490;2023-02-15T09:48:39;6.90;99.90
41447;DHT22;27185;52.040;4.490;2023-02-15T09:51:49;7.00;99.90
41447;DHT22;27185;52.040;4.490;2023-02-15T09:54:49;7.10;99.90
41447;DHT22;27185;52.040;4.490;2023-02-15T09:58:10;7.30;99.90
41447;DHT22;27185;52.040;4.490;2023-02-15T10:07:30;7.70;99.90
41447;DHT22;27185;52.040;4.490;2023-02-15T10:10:34;7.80;99.90
41447;DHT22;27185;52.040;4.490;2023-02-15T10:13:39;7.90;99.90
41447;DHT22;27185;52.040;4.490;2023-02-15T10:17:03;8.00;99.90
41447;DHT22;27185;52.040;4.490;2023-02-15T10:23:13;8.30;99.90
41447;DHT22;27185;52.040;4.490;2023-02-15T10:29:09;8.60;99.90
41447;DHT22;27185;52.040;4.490;2023-02-15T10:32:26;8.70;99.90
41447;DHT22;27185;52.040;4.490;2023-02-15T10:38:49;9.00;99.90
41447;DHT22;27185;52.040;4.490;2023-02-15T10:44:44;9.30;99.90
41447;DHT22;27185;52.040;4.490;2023-02-15T10:51:28;9.60;99.90
41447;DHT22;27185;52.040;4.490;2023-02-15T11:01:19;9.90;99.90
41447;DHT22;27185;52.040;4.490;2023-02-15T11:07:23;10.20;99.90
41447;DHT22;27185;52.040;4.490;2023-02-15T11:13:23;10.40;99.90
41447;DHT22;27185;52.040;4.490;2023-02-15T11:16:24;10.60;99.90
41447;DHT22;27185;52.040;4.490;2023-02-15T11:19:28;10.70;99.90
41447;DHT22;27185;52.040;4.490;2023-02-15T11:22:16;10.80;99.90
41447;DHT22;27185;52.040;4.490;2023-02-15T11:25:18;10.90;99.90
41447;DHT22;27185;52.040;4.490;2023-02-15T11:28:06;11.00;99.90
41447;DHT22;27185;52.040;4.490;2023-02-15T11:30:58;11.10;99.90
41447;DHT22;27185;52.040;4.490;2023-02-15T11:34:00;11.20;99.90
41447;DHT22;27185;52.040;4.490;2023-02-15T11:36:49;11.30;99.90
41447;DHT22;27185;52.040;4.490;2023-02-15T11:39:35;11.40;99.90
41447;DHT22;27185;52.040;4.490;2023-02-15T11:42:23;11.50;99.90
41447;DHT22;27185;52.040;4.490;2023-02-15T11:48:12;11.60;99.90
41447;DHT22;27185;52.040;4.490;2023-02-15T11:50:59;11.60;99.90
41447;DHT22;27185;52.040;4.490;2023-02-15T11:53:47;11.70;99.90
41447;DHT22;27185;52.040;4.490;2023-02-15T11:56:33;11.80;99.90
41447;DHT22;27185;52.040;4.490;2023-02-15T11:59:29;11.90;99.90
41447;DHT22;27185;52.040;4.490;2023-02-15T12:02:19;12.00;99.90
41447;DHT22;27185;52.040;4.490;2023-02-15T12:05:15;12.00;99.90
41447;DHT22;27185;52.040;4.490;2023-02-15T12:08:05;12.10;99.90
41447;DHT22;27185;52.040;4.490;2023-02-15T12:11:00;12.10;99.90
41447;DHT22;27185;52.040;4.490;2023-02-15T12:13:56;12.20;99.90
41447;DHT22;27185;52.040;4.490;2023-02-15T12:16:44;12.20;99.90
41447;DHT22;27185;52.040;4.490;2023-02-15T12:19:39;12.20;99.90
41447;DHT22;27185;52.040;4.490;2023-02-15T12:22:29;12.30;99.90
41447;DHT22;27185;52.040;4.490;2023-02-15T12:25:25;12.40;99.90
41447;DHT22;27185;52.040;4.490;2023-02-15T12:28:25;12.50;99.90
41447;DHT22;27185;52.040;4.490;2023-02-15T12:31:32;12.60;99.90
41447;DHT22;27185;52.040;4.490;2023-02-15T12:34:22;12.80;99.90
41447;DHT22;27185;52.040;4.490;2023-02-15T12:37:23;12.90;99.90
41447;DHT22;27185;52.040;4.490;2023-02-15T12:40:25;13.00;99.90
41447;DHT22;27185;52.040;4.490;2023-02-15T12:43:35;13.20;99.90
41447;DHT22;27185;52.040;4.490;2023-02-15T12:46:25;13.40;99.90
41447;DHT22;27185;52.040;4.490;2023-02-15T12:49:18;13.60;99.90
41447;DHT22;27185;52.040;4.490;2023-02-15T12:52:25;13.80;99.90
41447;DHT22;27185;52.040;4.490;2023-02-15T12:55:27;13.90;99.00
41447;DHT22;27185;52.040;4.490;2023-02-15T12:58:18;14.00;99.60
41447;DHT22;27185;52.040;4.490;2023-02-15T13:01:19;14.10;99.90
41447;DHT22;27185;52.040;4.490;2023-02-15T13:04:26;14.10;99.20
41447;DHT22;27185;52.040;4.490;2023-02-15T13:07:13;14.10;99.80
41447;DHT22;27185;52.040;4.490;2023-02-15T13:09:59;14.10;99.90
41447;DHT22;27185;52.040;4.490;2023-02-15T13:12:46;14.10;99.90
41447;DHT22;27185;52.040;4.490;2023-02-15T13:15:34;14.00;99.90
41447;DHT22;27185;52.040;4.490;2023-02-15T13:21:31;14.00;99.90
41447;DHT22;27185;52.040;4.490;2023-02-15T13:24:22;13.90;99.90
41447;DHT22;27185;52.040;4.490;2023-02-15T13:27:14;13.90;99.90
41447;DHT22;27185;52.040;4.490;2023-02-15T13:30:04;13.90;99.90
41447;DHT22;27185;52.040;4.490;2023-02-15T13:39:22;13.90;99.90
41447;DHT22;27185;52.040;4.490;2023-02-15T13:42:27;14.00;99.90
41447;DHT22;27185;52.040;4.490;2023-02-15T13:45:33;14.10;99.90
41447;DHT22;27185;52.040;4.490;2023-02-15T13:51:41;14.40;99.90
41447;DHT22;27185;52.040;4.490;2023-02-15T13:57:36;14.70;99.80
41447;DHT22;27185;52.040;4.490;2023-02-15T14:00:34;14.90;99.00
41447;DHT22;27185;52.040;4.490;2023-02-15T14:03:49;15.00;99.90
41447;DHT22;27185;52.040;4.490;2023-02-15T14:19:05;15.70;97.90
41447;DHT22;27185;52.040;4.490;2023-02-15T14:22:10;15.80;97.20
41447;DHT22;27185;52.040;4.490;2023-02-15T14:31:39;16.00;94.90
41447;DHT22;27185;52.040;4.490;2023-02-15T14:34:54;15.90;96.60
41447;DHT22;27185;52.040;4.490;2023-02-15T14:38:00;15.80;95.10
41447;DHT22;27185;52.040;4.490;2023-02-15T14:44:13;15.40;95.70
41447;DHT22;27185;52.040;4.490;2023-02-15T14:53:40;15.00;95.10
41447;DHT22;27185;52.040;4.490;2023-02-15T14:56:27;14.90;95.40
41447;DHT22;27185;52.040;4.490;2023-02-15T14:59:14;14.70;97.40
41447;DHT22;27185;52.040;4.490;2023-02-15T15:07:50;14.50;98.60
41447;DHT22;27185;52.040;4.490;2023-02-15T15:22:33;14.10;98.70
41447;DHT22;27185;52.040;4.490;2023-02-15T15:25:47;14.00;99.90
41447;DHT22;27185;52.040;4.490;2023-02-15T15:34:42;13.80;99.90
41447;DHT22;27185;52.040;4.490;2023-02-15T15:47:06;13.50;99.90
41447;DHT22;27185;52.040;4.490;2023-02-15T15:49:57;13.40;99.90
41447;DHT22;27185;52.040;4.490;2023-02-15T15:52:49;13.40;99.90
41447;DHT22;27185;52.040;4.490;2023-02-15T15:55:36;13.30;99.90
41447;DHT22;27185;52.040;4.490;2023-02-15T15:58:23;13.30;99.90
41447;DHT22;27185;52.040;4.490;2023-02-15T16:01:10;13.20;99.90
41447;DHT22;27185;52.040;4.490;2023-02-15T16:03:59;13.20;99.90
41447;DHT22;27185;52.040;4.490;2023-02-15T16:06:45;13.10;99.90
41447;DHT22;27185;52.040;4.490;2023-02-15T16:09:31;13.10;99.90
41447;DHT22;27185;52.040;4.490;2023-02-15T16:12:18;13.00;99.90
41447;DHT22;27185;52.040;4.490;2023-02-15T16:15:15;13.00;99.90
41447;DHT22;27185;52.040;4.490;2023-02-15T16:18:02;12.90;99.90
41447;DHT22;27185;52.040;4.490;2023-02-15T16:20:54;12.80;99.90
41447;DHT22;27185;52.040;4.490;2023-02-15T16:24:01;12.70;99.90
41447;DHT22;27185;52.040;4.490;2023-02-15T16:27:08;12.70;99.90
41447;DHT22;27185;52.040;4.490;2023-02-15T16:29:56;12.60;99.90
41447;DHT22;27185;52.040;4.490;2023-02-15T16:32:41;12.50;99.90
41447;DHT22;27185;52.040;4.490;2023-02-15T16:35:27;12.40;99.90
41447;DHT22;27185;52.040;4.490;2023-02-15T16:38:13;12.30;99.90
41447;DHT22;27185;52.040;4.490;2023-02-15T16:40:58;12.30;99.90
41447;DHT22;27185;52.040;4.490;2023-02-15T16:43:48;12.20;99.90
41447;DHT22;27185;52.040;4.490;2023-02-15T16:46:40;12.20;99.90
41447;DHT22;27185;52.040;4.490;2023-02-15T16:49:28;12.20;99.90
41447;DHT22;27185;52.040;4.490;2023-02-15T16:52:19;12.10;99.90
41447;DHT22;27185;52.040;4.490;2023-02-15T16:55:06;12.00;99.90
41447;DHT22;27185;52.040;4.490;2023-02-15T16:57:55;12.00;99.90
41447;DHT22;27185;52.040;4.490;2023-02-15T17:00:43;12.00;99.90
41447;DHT22;27185;52.040;4.490;2023-02-15T17:03:29;11.90;99.90
41447;DHT22;27185;52.040;4.490;2023-02-15T17:06:26;11.90;99.90
41447;DHT22;27185;52.040;4.490;2023-02-15T17:09:16;11.80;99.90
41447;DHT22;27185;52.040;4.490;2023-02-15T17:12:09;11.80;99.90
41447;DHT22;27185;52.040;4.490;2023-02-15T17:14:55;11.70;99.90
41447;DHT22;27185;52.040;4.490;2023-02-15T17:17:40;11.70;99.90
41447;DHT22;27185;52.040;4.490;2023-02-15T17:20:27;11.60;99.90
41447;DHT22;27185;52.040;4.490;2023-02-15T17:23:32;11.60;99.90
41447;DHT22;27185;52.040;4.490;2023-02-15T17:26:22;11.60;99.90
41447;DHT22;27185;52.040;4.490;2023-02-15T17:32:04;11.50;99.90
41447;DHT22;27185;52.040;4.490;2023-02-15T17:34:59;11.50;99.90
41447;DHT22;27185;52.040;4.490;2023-02-15T17:37:48;11.40;99.90
41447;DHT22;27185;52.040;4.490;2023-02-15T17:40:35;11.40;99.90
41447;DHT22;27185;52.040;4.490;2023-02-15T17:43:21;11.30;99.90
41447;DHT22;27185;52.040;4.490;2023-02-15T17:46:08;11.30;99.90
41447;DHT22;27185;52.040;4.490;2023-02-15T17:48:55;11.20;99.90
41447;DHT22;27185;52.040;4.490;2023-02-15T17:51:41;11.20;99.90
41447;DHT22;27185;52.040;4.490;2023-02-15T17:54:27;11.20;99.90
41447;DHT22;27185;52.040;4.490;2023-02-15T17:57:31;11.20;99.90
41447;DHT22;27185;52.040;4.490;2023-02-15T18:00:16;11.20;99.90
41447;DHT22;27185;52.040;4.490;2023-02-15T18:03:20;11.20;99.90
41447;DHT22;27185;52.040;4.490;2023-02-15T18:06:25;11.20;99.90
41447;DHT22;27185;52.040;4.490;2023-02-15T18:09:29;11.20;99.90
41447;DHT22;27185;52.040;4.490;2023-02-15T18:12:34;11.20;99.90
41447;DHT22;27185;52.040;4.490;2023-02-15T18:15:23;11.20;99.90
41447;DHT22;27185;52.040;4.490;2023-02-15T18:18:11;11.20;99.90
41447;DHT22;27185;52.040;4.490;2023-02-15T18:20:57;11.20;99.90
41447;DHT22;27185;52.040;4.490;2023-02-15T18:23:43;11.20;99.90
41447;DHT22;27185;52.040;4.490;2023-02-15T18:26:29;11.10;99.90
41447;DHT22;27185;52.040;4.490;2023-02-15T18:29:14;11.10;99.90
41447;DHT22;27185;52.040;4.490;2023-02-15T18:32:00;11.00;99.90
41447;DHT22;27185;52.040;4.490;2023-02-15T18:34:47;11.00;99.90
41447;DHT22;27185;52.040;4.490;2023-02-15T18:37:33;11.00;99.90
41447;DHT22;27185;52.040;4.490;2023-02-15T18:40:21;10.90;99.90
41447;DHT22;27185;52.040;4.490;2023-02-15T18:43:11;10.90;99.90
41447;DHT22;27185;52.040;4.490;2023-02-15T18:45:57;10.90;99.90
41447;DHT22;27185;52.040;4.490;2023-02-15T18:48:43;10.90;99.90
41447;DHT22;27185;52.040;4.490;2023-02-15T18:51:30;10.90;99.90
41447;DHT22;27185;52.040;4.490;2023-02-15T18:54:22;10.90;99.90
41447;DHT22;27185;52.040;4.490;2023-02-15T18:57:14;10.80;99.90
41447;DHT22;27185;52.040;4.490;2023-02-15T19:00:00;10.80;99.90
41447;DHT22;27185;52.040;4.490;2023-02-15T19:02:46;10.80;99.90
41447;DHT22;27185;52.040;4.490;2023-02-15T19:05:32;10.80;99.90
41447;DHT22;27185;52.040;4.490;2023-02-15T19:08:20;10.80;99.90
41447;DHT22;27185;52.040;4.490;2023-02-15T19:11:13;10.80;99.90
41447;DHT22;27185;52.040;4.490;2023-02-15T19:14:00;10.70;99.90
41447;DHT22;27185;52.040;4.490;2023-02-15T19:16:45;10.70;99.90
41447;DHT22;27185;52.040;4.490;2023-02-15T19:19:31;10.70;99.90
41447;DHT22;27185;52.040;4.490;2023-02-15T19:22:29;10.60;99.90
41447;DHT22;27185;52.040;4.490;2023-02-15T19:25:21;10.60;99.90
41447;DHT22;27185;52.040;4.490;2023-02-15T19:28:14;10.50;99.90
41447;DHT22;27185;52.040;4.490;2023-02-15T19:31:00;10.50;99.90
41447;DHT22;27185;52.040;4.490;2023-02-15T19:33:46;10.40;99.90
41447;DHT22;27185;52.040;4.490;2023-02-15T19:36:31;10.40;99.90
41447;DHT22;27185;52.040;4.490;2023-02-15T19:39:27;10.30;99.90
41447;DHT22;27185;52.040;4.490;2023-02-15T19:42:14;10.30;99.90
41447;DHT22;27185;52.040;4.490;2023-02-15T19:45:00;10.20;99.90
41447;DHT22;27185;52.040;4.490;2023-02-15T19:47:46;10.10;99.90
41447;DHT22;27185;52.040;4.490;2023-02-15T19:50:33;10.10;99.90
41447;DHT22;27185;52.040;4.490;2023-02-15T19:53:23;9.90;99.90
41447;DHT22;27185;52.040;4.490;2023-02-15T19:56:21;9.90;99.90
41447;DHT22;27185;52.040;4.490;2023-02-15T19:59:27;9.80;99.90
41447;DHT22;27185;52.040;4.490;2023-02-15T20:02:14;9.80;99.90
41447;DHT22;27185;52.040;4.490;2023-02-15T20:05:02;9.70;99.90
41447;DHT22;27185;52.040;4.490;2023-02-15T20:07:50;9.60;99.90
41447;DHT22;27185;52.040;4.490;2023-02-15T20:10:37;9.60;99.90
41447;DHT22;27185;52.040;4.490;2023-02-15T20:13:24;9.50;99.90
41447;DHT22;27185;52.040;4.490;2023-02-15T20:16:09;9.50;99.90
41447;DHT22;27185;52.040;4.490;2023-02-15T20:18:55;9.40;99.90
41447;DHT22;27185;52.040;4.490;2023-02-15T20:21:46;9.40;99.90
41447;DHT22;27185;52.040;4.490;2023-02-15T20:24:36;9.40;99.90
41447;DHT22;27185;52.040;4.490;2023-02-15T20:27:21;9.30;99.90
41447;DHT22;27185;52.040;4.490;2023-02-15T20:30:17;9.30;99.90
41447;DHT22;27185;52.040;4.490;2023-02-15T20:33:03;9.30;99.90